Terminal Aerodrome Forecast
Issued by NWS

Home | Current Version | Previous Version | Text Only | Print | Product List | Glossary On
Versions: 1 2 3 4 5 6 7 8 9 10 11 12 13 14
000
FTUS44 KHGX 181725
TAFUTS
TAF
KUTS 181725Z 1818/1918 VRB04KT P6SM SCT050
     FM190600 VRB03KT P6SM FEW050 SCT250
     FM191200 09003KT P6SM FEW040 BKN250
     FM191500 12005KT P6SM SCT035 BKN200=

USA.gov is the U.S. government's official web portal to all federal, state and local government web resources and services.